createdAt,value
2022-08-20T00:00:14.400Z,78.11
2022-08-20T00:01:14.386Z,78.02
2022-08-20T00:02:14.463Z,78.02
2022-08-20T00:03:14.358Z,78.30
2022-08-20T00:04:14.349Z,78.30
2022-08-20T00:05:14.335Z,78.20
2022-08-20T00:06:14.327Z,78.49
2022-08-20T00:07:14.311Z,78.59
2022-08-20T00:08:14.296Z,78.59
2022-08-20T00:09:14.283Z,78.69
2022-08-20T00:10:14.271Z,78.78
2022-08-20T00:11:14.256Z,78.69
2022-08-20T00:12:14.243Z,78.97
2022-08-20T00:13:14.231Z,78.97
2022-08-20T00:14:14.216Z,79.36
2022-08-20T00:15:14.211Z,79.45
2022-08-20T00:16:14.189Z,79.55
2022-08-20T00:17:14.175Z,79.55
2022-08-20T00:18:14.166Z,79.36
2022-08-20T00:19:14.148Z,79.64
2022-08-20T00:20:14.140Z,79.64
2022-08-20T00:21:16.683Z,79.83
2022-08-20T00:22:14.109Z,79.83
2022-08-20T00:23:14.097Z,80.12
2022-08-20T00:24:14.088Z,80.03
2022-08-20T00:25:14.069Z,80.32
2022-08-20T00:26:14.058Z,80.51
2022-08-20T00:27:14.045Z,80.22
2022-08-20T00:28:14.032Z,80.32
2022-08-20T00:29:14.017Z,80.51
2022-08-20T00:30:14.012Z,80.70
2022-08-20T00:31:14.002Z,80.41
2022-08-20T00:32:13.977Z,80.51
2022-08-20T00:33:13.965Z,80.22
2022-08-20T00:34:13.951Z,80.41
2022-08-20T00:35:13.942Z,80.70
2022-08-20T00:36:13.927Z,80.99
2022-08-20T00:37:13.911Z,80.79
2022-08-20T00:38:13.904Z,80.99
2022-08-20T00:39:13.886Z,81.18
2022-08-20T00:40:22.431Z,80.99
2022-08-20T00:41:13.858Z,81.18
2022-08-20T00:42:13.847Z,80.99
2022-08-20T00:43:13.831Z,81.46
2022-08-20T00:44:13.821Z,80.99
2022-08-20T00:45:13.806Z,81.46
2022-08-20T00:46:13.792Z,81.37
2022-08-20T00:47:13.779Z,81.37
2022-08-20T00:48:13.766Z,81.85
2022-08-20T00:49:13.754Z,81.66
2022-08-20T00:50:13.740Z,81.66
2022-08-20T00:51:13.735Z,82.23
2022-08-20T00:52:13.710Z,82.42
2022-08-20T00:53:13.702Z,82.32
2022-08-20T00:54:13.685Z,82.23
2022-08-20T00:55:13.676Z,82.62
2022-08-20T00:56:13.658Z,82.62
2022-08-20T00:57:13.648Z,82.81
2022-08-20T00:58:13.631Z,82.71
2022-08-20T00:59:13.624Z,83.09
2022-08-20T01:00:13.607Z,83.00
2022-08-20T01:01:13.595Z,83.00
2022-08-20T01:02:13.626Z,83.09
2022-08-20T01:03:13.566Z,83.00
2022-08-20T01:04:13.550Z,83.29
2022-08-20T01:05:13.542Z,83.48
2022-08-20T01:06:13.526Z,83.00
2022-08-20T01:07:13.515Z,83.29
2022-08-20T01:08:13.505Z,83.95
2022-08-20T01:09:13.486Z,83.76
2022-08-20T01:10:13.471Z,83.58
2022-08-20T01:11:13.460Z,83.86
2022-08-20T01:12:13.447Z,83.76
2022-08-20T01:13:13.441Z,83.86
2022-08-20T01:14:13.421Z,83.95
2022-08-20T01:15:13.404Z,84.15
2022-08-20T01:16:13.393Z,84.05
2022-08-20T01:17:13.383Z,84.15
2022-08-20T01:18:13.365Z,83.58
2022-08-20T01:19:29.961Z,84.44
2022-08-20T01:20:13.340Z,84.34
2022-08-20T01:21:13.329Z,84.53
2022-08-20T01:22:13.309Z,84.34
2022-08-20T01:23:13.302Z,84.15
2022-08-20T01:24:13.287Z,84.44
2022-08-20T01:25:13.276Z,84.25
2022-08-20T01:26:13.261Z,84.34
2022-08-20T01:27:13.245Z,84.44
2022-08-20T01:28:13.232Z,85.11
2022-08-20T01:29:13.221Z,84.91
2022-08-20T01:30:13.204Z,84.91
2022-08-20T01:31:13.197Z,84.82
2022-08-20T01:32:13.183Z,84.91
2022-08-20T01:33:13.167Z,84.91
2022-08-20T01:34:13.152Z,85.30
2022-08-20T01:35:13.141Z,85.58
2022-08-20T01:36:13.126Z,85.21
2022-08-20T01:37:13.119Z,85.49
2022-08-20T01:38:13.100Z,85.11
2022-08-20T01:39:13.103Z,85.21
2022-08-20T01:40:13.122Z,85.21
2022-08-20T01:41:13.059Z,85.39
2022-08-20T01:42:13.046Z,85.11
2022-08-20T01:43:13.104Z,85.21
2022-08-20T01:44:16.707Z,85.21
2022-08-20T01:45:13.007Z,85.01
2022-08-20T01:46:12.991Z,85.21
2022-08-20T01:47:12.983Z,85.88
2022-08-20T01:48:12.965Z,85.68
2022-08-20T01:49:13.574Z,85.58
2022-08-20T01:50:12.937Z,85.68
2022-08-20T01:51:12.928Z,85.88
2022-08-20T01:52:12.919Z,85.68
2022-08-20T01:53:12.900Z,85.88
2022-08-20T01:54:12.885Z,85.68
2022-08-20T01:55:12.880Z,85.88
2022-08-20T01:56:12.859Z,86.16
2022-08-20T01:57:12.853Z,85.97
2022-08-20T01:58:12.839Z,86.25
2022-08-20T01:59:12.821Z,86.35
2022-08-20T02:00:19.708Z,86.83
2022-08-20T02:01:12.859Z,86.83
2022-08-20T02:02:12.783Z,86.83
2022-08-20T02:03:12.767Z,86.93
2022-08-20T02:04:15.334Z,87.02
2022-08-20T02:05:12.740Z,86.83
2022-08-20T02:06:12.728Z,86.45
2022-08-20T02:07:12.713Z,87.02
2022-08-20T02:08:12.700Z,86.93
2022-08-20T02:09:16.054Z,86.83
2022-08-20T02:10:12.671Z,87.60
2022-08-20T02:11:12.662Z,87.31
2022-08-20T02:12:12.645Z,87.60
2022-08-20T02:13:12.633Z,87.79
2022-08-20T02:14:12.619Z,87.60
2022-08-20T02:15:12.611Z,87.21
2022-08-20T02:16:12.649Z,87.50
2022-08-20T02:17:12.583Z,87.79
2022-08-20T02:18:12.570Z,88.08
2022-08-20T02:19:12.565Z,88.17
2022-08-20T02:20:12.545Z,88.27
2022-08-20T02:21:12.526Z,88.65
2022-08-20T02:22:12.512Z,88.46
2022-08-20T02:23:12.500Z,88.46
2022-08-20T02:24:12.487Z,88.84
2022-08-20T02:25:12.473Z,88.65
2022-08-20T02:26:12.457Z,88.84
2022-08-20T02:27:12.445Z,88.56
2022-08-20T02:28:12.431Z,88.84
2022-08-20T02:29:12.422Z,89.32
2022-08-20T02:30:19.950Z,88.94
2022-08-20T02:31:12.391Z,89.13
2022-08-20T02:32:24.435Z,89.13
2022-08-20T02:33:12.365Z,89.04
2022-08-20T02:34:21.860Z,89.32
2022-08-20T02:35:12.340Z,89.90
2022-08-20T02:36:12.330Z,89.61
2022-08-20T02:37:12.315Z,89.51
2022-08-20T02:38:12.298Z,89.23
2022-08-20T02:39:12.286Z,90.00
2022-08-20T02:40:12.338Z,89.51
2022-08-20T02:41:12.259Z,89.42
2022-08-20T02:42:12.245Z,89.71
2022-08-20T02:43:12.234Z,90.28
2022-08-20T02:44:12.221Z,90.42
2022-08-20T02:45:19.009Z,90.14
2022-08-20T02:46:12.190Z,89.94
2022-08-20T02:47:12.180Z,90.23
2022-08-20T02:48:12.168Z,90.14
2022-08-20T02:49:12.166Z,90.14
2022-08-20T02:50:12.137Z,89.85
2022-08-20T02:51:12.125Z,90.14
2022-08-20T02:52:12.120Z,90.14
2022-08-20T02:53:12.108Z,90.23
2022-08-20T02:54:12.092Z,89.75
2022-08-20T02:55:12.074Z,90.33
2022-08-20T02:56:12.063Z,90.14
2022-08-20T02:57:12.054Z,90.18
2022-08-20T02:58:12.033Z,90.08
2022-08-20T02:59:12.536Z,89.99
2022-08-20T03:00:12.009Z,90.33
2022-08-20T03:01:12.042Z,90.28
2022-08-20T03:02:11.982Z,89.99
2022-08-20T03:03:11.968Z,90.08
2022-08-20T03:04:11.954Z,90.47
2022-08-20T03:05:11.942Z,90.18
2022-08-20T03:06:11.932Z,90.28
2022-08-20T03:07:11.915Z,90.18
2022-08-20T03:08:11.903Z,90.37
2022-08-20T03:09:11.890Z,90.18
2022-08-20T03:10:11.886Z,90.37
2022-08-20T03:11:11.866Z,90.18
2022-08-20T03:12:11.852Z,89.79
2022-08-20T03:13:11.838Z,90.22
2022-08-20T03:14:11.824Z,90.22
2022-08-20T03:15:17.574Z,90.42
2022-08-20T03:16:11.850Z,89.84
2022-08-20T03:17:11.791Z,89.75
2022-08-20T03:18:11.772Z,89.84
2022-08-20T03:19:11.761Z,89.55
2022-08-20T03:20:11.744Z,89.36
2022-08-20T03:21:11.740Z,89.75
2022-08-20T03:22:11.721Z,89.94
2022-08-20T03:23:11.709Z,89.46
2022-08-20T03:24:11.700Z,89.50
2022-08-20T03:25:11.683Z,89.60
2022-08-20T03:26:11.666Z,89.22
2022-08-20T03:27:11.664Z,89.40
2022-08-20T03:28:11.649Z,89.31
2022-08-20T03:29:11.635Z,89.22
2022-08-20T03:30:11.616Z,89.12
2022-08-20T03:31:14.694Z,89.31
2022-08-20T03:32:11.598Z,89.50
2022-08-20T03:33:11.582Z,89.31
2022-08-20T03:34:11.564Z,89.31
2022-08-20T03:35:11.555Z,89.22
2022-08-20T03:36:11.543Z,88.83
2022-08-20T03:37:11.529Z,88.93
2022-08-20T03:38:11.517Z,88.93
2022-08-20T03:39:11.534Z,89.12
2022-08-20T03:40:11.603Z,89.02
2022-08-20T03:41:11.494Z,88.83
2022-08-20T03:42:11.466Z,89.12
2022-08-20T03:43:11.456Z,89.12
2022-08-20T03:44:11.440Z,89.02
2022-08-20T03:45:11.428Z,89.31
2022-08-20T03:46:21.979Z,89.12
2022-08-20T03:47:11.404Z,88.83
2022-08-20T03:48:11.388Z,88.93
2022-08-20T03:49:11.379Z,88.83
2022-08-20T03:50:11.366Z,88.83
2022-08-20T03:51:11.350Z,88.54
2022-08-20T03:52:11.336Z,88.93
2022-08-20T03:53:13.081Z,88.16
2022-08-20T03:54:11.312Z,88.83
2022-08-20T03:55:11.301Z,88.49
2022-08-20T03:56:11.286Z,88.68
2022-08-20T03:57:12.854Z,89.02
2022-08-20T03:58:11.263Z,88.45
2022-08-20T03:59:11.253Z,88.30
2022-08-20T04:00:11.238Z,88.93
2022-08-20T04:01:36.867Z,88.49
2022-08-20T04:02:11.275Z,88.97
2022-08-20T04:03:11.199Z,88.73
2022-08-20T04:04:12.231Z,88.64
2022-08-20T04:05:11.177Z,88.83
2022-08-20T04:06:11.161Z,89.22
2022-08-20T04:07:11.153Z,88.59
2022-08-20T04:08:11.135Z,88.64
2022-08-20T04:09:12.171Z,88.54
2022-08-20T04:10:11.112Z,89.02
2022-08-20T04:11:11.101Z,89.26
2022-08-20T04:12:11.087Z,88.68
2022-08-20T04:13:11.075Z,89.26
2022-08-20T04:14:11.332Z,89.16
2022-08-20T04:15:11.049Z,88.68
2022-08-20T04:16:13.469Z,88.83
2022-08-20T04:17:11.029Z,88.59
2022-08-20T04:18:11.014Z,89.16
2022-08-20T04:19:11.002Z,89.26
2022-08-20T04:20:10.989Z,88.78
2022-08-20T04:21:10.975Z,88.78
2022-08-20T04:22:10.960Z,89.07
2022-08-20T04:23:10.949Z,88.78
2022-08-20T04:24:27.508Z,88.49
2022-08-20T04:25:10.925Z,88.49
2022-08-20T04:26:10.918Z,88.49
2022-08-20T04:27:10.903Z,88.97
2022-08-20T04:28:10.888Z,88.97
2022-08-20T04:29:10.877Z,88.39
2022-08-20T04:30:10.861Z,88.78
2022-08-20T04:31:10.850Z,88.39
2022-08-20T04:32:10.836Z,88.59
2022-08-20T04:33:10.825Z,88.59
2022-08-20T04:34:10.822Z,88.30
2022-08-20T04:35:10.799Z,88.39
2022-08-20T04:36:10.787Z,88.01
2022-08-20T04:37:16.953Z,87.82
2022-08-20T04:38:10.766Z,88.39
2022-08-20T04:39:10.751Z,87.92
2022-08-20T04:40:10.834Z,88.59
2022-08-20T04:41:10.745Z,88.06
2022-08-20T04:42:10.711Z,87.57
2022-08-20T04:43:10.700Z,88.10
2022-08-20T04:44:10.686Z,87.67
2022-08-20T04:45:10.674Z,88.06
2022-08-20T04:46:10.661Z,88.06
2022-08-20T04:47:10.651Z,88.06
2022-08-20T04:48:14.791Z,88.06
2022-08-20T04:49:10.627Z,87.86
2022-08-20T04:50:10.628Z,88.06
2022-08-20T04:51:10.600Z,87.86
2022-08-20T04:52:10.590Z,87.86
2022-08-20T04:53:10.578Z,88.15
2022-08-20T04:54:10.566Z,87.86
2022-08-20T04:55:10.565Z,87.76
2022-08-20T04:56:10.537Z,88.06
2022-08-20T04:57:10.534Z,87.86
2022-08-20T04:58:10.513Z,87.86
2022-08-20T04:59:10.504Z,87.76
2022-08-20T05:00:10.490Z,87.67
2022-08-20T05:01:10.493Z,87.96
2022-08-20T05:02:10.465Z,87.76
2022-08-20T05:03:10.452Z,87.96
2022-08-20T05:04:10.441Z,87.67
2022-08-20T05:05:10.429Z,87.67
2022-08-20T05:06:10.420Z,87.67
2022-08-20T05:07:10.404Z,87.48
2022-08-20T05:08:16.695Z,87.57
2022-08-20T05:09:10.380Z,87.57
2022-08-20T05:10:10.369Z,87.57
2022-08-20T05:11:33.692Z,87.57
2022-08-20T05:12:10.340Z,87.67
2022-08-20T05:13:10.327Z,87.48
2022-08-20T05:14:10.319Z,87.57
2022-08-20T05:15:10.303Z,87.38
2022-08-20T05:16:10.295Z,87.29
2022-08-20T05:17:10.281Z,87.38
2022-08-20T05:18:10.269Z,87.86
2022-08-20T05:19:10.253Z,87.57
2022-08-20T05:20:10.242Z,87.86
2022-08-20T05:21:10.232Z,87.96
2022-08-20T05:22:10.220Z,87.67
2022-08-20T05:23:10.208Z,88.06
2022-08-20T05:24:10.259Z,88.34
2022-08-20T05:25:10.182Z,88.06
2022-08-20T05:26:10.167Z,87.76
2022-08-20T05:27:10.154Z,88.06
2022-08-20T05:28:10.144Z,87.86
2022-08-20T05:29:10.129Z,87.76
2022-08-20T05:30:11.740Z,87.57
2022-08-20T05:31:10.104Z,87.57
2022-08-20T05:32:10.094Z,87.86
2022-08-20T05:33:10.087Z,87.86
2022-08-20T05:34:11.299Z,87.96
2022-08-20T05:35:10.054Z,87.86
2022-08-20T05:36:10.043Z,87.96
2022-08-20T05:37:10.032Z,87.96
2022-08-20T05:38:10.031Z,88.15
2022-08-20T05:39:10.009Z,88.15
2022-08-20T05:40:10.081Z,88.06
2022-08-20T05:41:09.985Z,87.96
2022-08-20T05:42:09.973Z,87.86
2022-08-20T05:43:09.955Z,87.57
2022-08-20T05:44:10.064Z,88.00
2022-08-20T05:45:11.069Z,88.06
2022-08-20T05:46:09.919Z,88.29
2022-08-20T05:47:09.917Z,87.71
2022-08-20T05:48:09.898Z,87.90
2022-08-20T05:49:09.884Z,87.62
2022-08-20T05:50:09.870Z,87.42
2022-08-20T05:51:13.289Z,87.81
2022-08-20T05:52:09.850Z,88.19
2022-08-20T05:53:09.839Z,87.71
2022-08-20T05:54:09.823Z,87.90
2022-08-20T05:55:09.817Z,88.00
2022-08-20T05:56:09.801Z,87.71
2022-08-20T05:57:09.784Z,87.90
2022-08-20T05:58:09.774Z,87.23
2022-08-20T05:59:09.766Z,87.33
2022-08-20T06:00:09.751Z,87.27
2022-08-20T06:01:09.758Z,87.46
2022-08-20T06:02:09.724Z,86.79
2022-08-20T06:03:09.713Z,87.66
2022-08-20T06:04:09.710Z,87.46
2022-08-20T06:05:09.686Z,87.46
2022-08-20T06:06:15.099Z,87.46
2022-08-20T06:07:09.665Z,87.18
2022-08-20T06:08:09.651Z,87.08
2022-08-20T06:09:09.640Z,87.08
2022-08-20T06:10:09.631Z,86.79
2022-08-20T06:11:09.613Z,86.99
2022-08-20T06:12:09.620Z,87.08
2022-08-20T06:13:13.873Z,87.18
2022-08-20T06:14:09.578Z,86.89
2022-08-20T06:15:09.565Z,86.69
2022-08-20T06:16:09.561Z,86.69
2022-08-20T06:17:09.542Z,86.99
2022-08-20T06:18:16.532Z,86.79
2022-08-20T06:19:11.387Z,86.79
2022-08-20T06:20:09.513Z,86.79
2022-08-20T06:21:09.493Z,86.22
2022-08-20T06:22:18.537Z,86.60
2022-08-20T06:23:09.476Z,86.60
2022-08-20T06:24:09.461Z,86.60
2022-08-20T06:25:09.446Z,86.41
2022-08-20T06:26:09.436Z,86.31
2022-08-20T06:27:09.435Z,86.41
2022-08-20T06:28:09.411Z,86.31
2022-08-20T06:29:09.399Z,86.60
2022-08-20T06:30:09.387Z,86.31
2022-08-20T06:31:09.373Z,86.51
2022-08-20T06:32:09.365Z,86.60
2022-08-20T06:33:09.351Z,86.99
2022-08-20T06:34:09.352Z,86.79
2022-08-20T06:35:09.326Z,86.79
2022-08-20T06:36:09.315Z,86.79
2022-08-20T06:37:09.304Z,86.60
2022-08-20T06:38:09.293Z,86.79
2022-08-20T06:39:09.278Z,87.37
2022-08-20T06:40:09.330Z,87.18
2022-08-20T06:41:09.254Z,86.99
2022-08-20T06:42:09.244Z,86.99
2022-08-20T06:43:09.237Z,87.66
2022-08-20T06:44:09.225Z,87.27
2022-08-20T06:45:09.208Z,87.46
2022-08-20T06:46:09.194Z,87.46
2022-08-20T06:47:09.181Z,87.37
2022-08-20T06:48:09.173Z,87.18
2022-08-20T06:49:09.171Z,87.08
2022-08-20T06:50:09.148Z,87.37
2022-08-20T06:51:09.133Z,88.04
2022-08-20T06:52:09.125Z,87.95
2022-08-20T06:53:09.436Z,87.76
2022-08-20T06:54:09.103Z,87.85
2022-08-20T06:55:09.085Z,87.56
2022-08-20T06:56:09.074Z,87.76
2022-08-20T06:57:09.064Z,87.76
2022-08-20T06:58:32.721Z,87.85
2022-08-20T06:59:09.040Z,87.66
2022-08-20T07:00:09.026Z,88.04
2022-08-20T07:01:10.153Z,88.14
2022-08-20T07:02:09.003Z,88.14
2022-08-20T07:03:08.990Z,87.95
2022-08-20T07:04:08.981Z,88.62
2022-08-20T07:05:08.974Z,88.71
2022-08-20T07:06:08.955Z,88.62
2022-08-20T07:07:08.948Z,88.81
2022-08-20T07:08:08.931Z,88.81
2022-08-20T07:09:08.919Z,88.53
2022-08-20T07:10:08.907Z,88.24
2022-08-20T07:11:08.892Z,88.24
2022-08-20T07:12:08.881Z,88.04
2022-08-20T07:13:08.870Z,88.14
2022-08-20T07:14:08.857Z,88.24
2022-08-20T07:15:08.844Z,88.04
2022-08-20T07:16:08.835Z,88.33
2022-08-20T07:17:09.674Z,88.38
2022-08-20T07:18:08.816Z,88.14
2022-08-20T07:19:08.798Z,88.18
2022-08-20T07:20:08.787Z,87.95
2022-08-20T07:21:08.772Z,88.18
2022-08-20T07:22:08.762Z,88.18
2022-08-20T07:23:08.748Z,87.80
2022-08-20T07:24:08.745Z,87.51
2022-08-20T07:25:08.730Z,87.80
2022-08-20T07:26:08.728Z,87.99
2022-08-20T07:27:08.703Z,87.60
2022-08-20T07:28:08.689Z,87.70
2022-08-20T07:29:08.684Z,87.51
2022-08-20T07:30:12.527Z,87.55
2022-08-20T07:31:13.731Z,87.46
2022-08-20T07:32:08.643Z,87.55
2022-08-20T07:33:08.630Z,87.17
2022-08-20T07:34:08.621Z,87.46
2022-08-20T07:35:08.610Z,87.26
2022-08-20T07:36:08.598Z,87.07
2022-08-20T07:37:09.362Z,86.78
2022-08-20T07:38:08.575Z,86.78
2022-08-20T07:39:08.561Z,87.26
2022-08-20T07:40:08.588Z,87.17
2022-08-20T07:41:08.550Z,87.46
2022-08-20T07:42:08.527Z,87.26
2022-08-20T07:43:08.516Z,87.46
2022-08-20T07:44:08.504Z,88.23
2022-08-20T07:45:08.493Z,88.04
2022-08-20T07:46:08.522Z,88.28
2022-08-20T07:47:08.468Z,89.24
2022-08-20T07:48:08.460Z,89.15
2022-08-20T07:49:08.444Z,89.63
2022-08-20T07:50:08.432Z,89.92
2022-08-20T07:51:08.419Z,90.30
2022-08-20T07:52:08.410Z,90.59
2022-08-20T07:53:08.404Z,90.50
2022-08-20T07:54:08.386Z,91.17
2022-08-20T07:55:08.375Z,91.65
2022-08-20T07:56:08.370Z,91.46
2022-08-20T07:57:08.351Z,91.46
2022-08-20T07:58:08.336Z,91.94
2022-08-20T07:59:08.326Z,91.75
2022-08-20T08:00:08.315Z,91.84
2022-08-20T08:01:08.364Z,91.75
2022-08-20T08:02:08.290Z,92.80
2022-08-20T08:03:08.281Z,92.80
2022-08-20T08:04:08.267Z,92.32
2022-08-20T08:05:08.262Z,92.52
2022-08-20T08:06:08.245Z,92.13
2022-08-20T08:07:08.229Z,92.32
2022-08-20T08:08:08.223Z,92.52
2022-08-20T08:09:08.206Z,92.32
2022-08-20T08:10:08.193Z,92.52
2022-08-20T08:11:08.181Z,92.32
2022-08-20T08:12:08.169Z,92.61
2022-08-20T08:13:08.160Z,92.03
2022-08-20T08:14:08.238Z,92.27
2022-08-20T08:15:08.139Z,91.89
2022-08-20T08:16:08.125Z,91.79
2022-08-20T08:17:08.109Z,91.99
2022-08-20T08:18:08.103Z,91.89
2022-08-20T08:19:08.087Z,91.99
2022-08-20T08:20:08.077Z,91.69
2022-08-20T08:21:08.069Z,92.08
2022-08-20T08:22:08.059Z,91.31
2022-08-20T08:23:08.038Z,91.45
2022-08-20T08:24:08.031Z,91.55
2022-08-20T08:25:08.014Z,91.45
2022-08-20T08:26:08.018Z,91.36
2022-08-20T08:27:07.997Z,90.88
2022-08-20T08:28:07.982Z,90.68
2022-08-20T08:29:07.973Z,90.63
2022-08-20T08:30:07.958Z,90.53
2022-08-20T08:31:07.945Z,90.44
2022-08-20T08:32:08.003Z,90.05
2022-08-20T08:33:07.997Z,90.44
2022-08-20T08:34:07.915Z,90.24
2022-08-20T08:35:07.908Z,89.95
2022-08-20T08:36:07.908Z,90.05
2022-08-20T08:37:07.884Z,90.44
2022-08-20T08:38:07.870Z,89.57
2022-08-20T08:39:07.888Z,89.86
2022-08-20T08:40:07.889Z,89.18
2022-08-20T08:41:07.833Z,89.67
2022-08-20T08:42:07.830Z,89.57
2022-08-20T08:43:07.808Z,89.95
2022-08-20T08:44:07.806Z,89.76
2022-08-20T08:45:07.813Z,89.95
2022-08-20T08:46:07.784Z,89.47
2022-08-20T08:47:07.766Z,89.28
2022-08-20T08:48:07.758Z,89.76
2022-08-20T08:49:07.744Z,89.18
2022-08-20T08:50:07.733Z,88.51
2022-08-20T08:51:07.723Z,88.55
2022-08-20T08:52:07.788Z,88.17
2022-08-20T08:53:07.699Z,87.92
2022-08-20T08:54:07.692Z,87.15
2022-08-20T08:55:07.681Z,86.52
2022-08-20T08:56:07.676Z,85.78
2022-08-20T08:57:07.664Z,84.77
2022-08-20T08:58:16.482Z,84.03
2022-08-20T08:59:07.695Z,82.23
2022-08-20T09:00:07.629Z,81.12
2022-08-20T09:01:11.676Z,80.82
2022-08-20T09:02:07.672Z,79.80
2022-08-20T09:03:07.708Z,79.16
2022-08-20T09:04:07.595Z,77.45
2022-08-20T09:05:07.658Z,76.72
2022-08-20T09:06:07.588Z,74.87
2022-08-20T09:07:07.574Z,74.23
2022-08-20T09:08:07.562Z,73.10
2022-08-20T09:09:07.550Z,72.23
2022-08-20T09:10:07.545Z,71.64
2022-08-20T09:11:07.646Z,70.51
2022-08-20T09:12:07.534Z,70.61
2022-08-20T09:13:07.536Z,69.93
2022-08-20T09:14:07.524Z,69.77
2022-08-20T09:15:07.507Z,68.70
2022-08-20T09:16:07.505Z,68.51
2022-08-20T09:17:07.498Z,68.44
2022-08-20T09:18:07.488Z,67.70
2022-08-20T09:19:07.486Z,67.11
2022-08-20T09:20:07.476Z,64.52
2022-08-20T09:21:07.472Z,64.17
2022-08-20T09:22:07.472Z,63.09
2022-08-20T09:23:07.461Z,62.60
2022-08-20T09:24:07.451Z,62.09
2022-08-20T09:25:07.450Z,61.38
2022-08-20T09:26:07.439Z,62.51
2022-08-20T09:27:07.433Z,62.13
2022-08-20T09:28:07.431Z,62.81
2022-08-20T09:29:07.431Z,62.54
2022-08-20T09:30:07.420Z,62.16
2022-08-20T09:31:07.415Z,61.47
2022-08-20T09:32:07.406Z,60.56
2022-08-20T09:33:07.405Z,60.08
2022-08-20T09:34:07.394Z,59.88
2022-08-20T09:35:09.437Z,59.78
2022-08-20T09:36:29.271Z,59.62
2022-08-20T09:37:07.442Z,59.42
2022-08-20T09:38:07.372Z,59.06
2022-08-20T09:39:07.381Z,58.77
2022-08-20T09:40:07.473Z,57.60
2022-08-20T09:41:07.362Z,56.52
2022-08-20T09:42:07.376Z,56.72
2022-08-20T09:43:07.351Z,55.97
2022-08-20T09:44:07.348Z,56.00
2022-08-20T09:45:10.916Z,54.70
2022-08-20T09:46:07.345Z,55.09
2022-08-20T09:47:07.332Z,55.51
2022-08-20T09:48:10.392Z,54.34
2022-08-20T09:49:10.343Z,53.44
2022-08-20T09:50:07.316Z,53.44
2022-08-20T09:51:07.313Z,54.02
2022-08-20T09:52:07.305Z,53.73
2022-08-20T09:53:07.322Z,53.53
2022-08-20T09:54:07.297Z,52.78
2022-08-20T09:55:07.294Z,52.29
2022-08-20T09:56:07.290Z,52.80
2022-08-20T09:57:07.289Z,52.51
2022-08-20T09:58:07.280Z,52.90
2022-08-20T09:59:07.280Z,52.90
2022-08-20T10:00:07.275Z,52.61
2022-08-20T10:01:07.269Z,51.46
2022-08-20T10:02:07.306Z,51.95
2022-08-20T10:03:07.262Z,51.56
2022-08-20T10:04:07.257Z,51.27
2022-08-20T10:05:07.253Z,50.10
2022-08-20T10:06:07.249Z,51.04
2022-08-20T10:07:07.246Z,51.02
2022-08-20T10:08:07.243Z,50.34
2022-08-20T10:09:07.236Z,51.02
2022-08-20T10:10:07.231Z,51.12
2022-08-20T10:11:07.229Z,51.12
2022-08-20T10:12:07.221Z,50.53
2022-08-20T10:13:07.222Z,50.90
2022-08-20T10:14:07.213Z,51.21
2022-08-20T10:15:07.215Z,51.04
2022-08-20T10:16:07.212Z,50.34
2022-08-20T10:17:07.206Z,49.66
2022-08-20T10:18:07.198Z,49.93
2022-08-20T10:19:07.193Z,50.21
2022-08-20T10:20:07.204Z,50.12
2022-08-20T10:21:07.185Z,50.43
2022-08-20T10:22:07.179Z,49.95
2022-08-20T10:23:07.212Z,49.29
2022-08-20T10:24:07.172Z,49.49
2022-08-20T10:25:07.183Z,49.68
2022-08-20T10:26:07.159Z,50.34
2022-08-20T10:27:07.184Z,50.21
2022-08-20T10:28:07.157Z,50.90
2022-08-20T10:29:07.155Z,51.09
2022-08-20T10:30:07.188Z,51.21
2022-08-20T10:31:07.146Z,50.92
2022-08-20T10:32:07.134Z,50.36
2022-08-20T10:33:07.145Z,49.88
2022-08-20T10:34:07.126Z,49.90
2022-08-20T10:35:07.123Z,50.00
2022-08-20T10:36:07.121Z,49.61
2022-08-20T10:37:07.120Z,49.51
2022-08-20T10:38:07.107Z,49.51
2022-08-20T10:39:07.105Z,49.71
2022-08-20T10:40:07.160Z,49.98
2022-08-20T10:41:07.099Z,49.78
2022-08-20T10:42:07.197Z,49.98
2022-08-20T10:43:07.171Z,50.14
2022-08-20T10:44:07.085Z,50.24
2022-08-20T10:45:07.088Z,50.82
2022-08-20T10:46:07.078Z,50.73
2022-08-20T10:47:07.071Z,50.82
2022-08-20T10:48:07.065Z,49.98
2022-08-20T10:49:07.063Z,49.68
2022-08-20T10:50:07.056Z,49.88
2022-08-20T10:51:07.113Z,49.58
2022-08-20T10:52:07.045Z,49.66
2022-08-20T10:53:07.044Z,50.02
2022-08-20T10:54:12.697Z,50.41
2022-08-20T10:55:07.036Z,50.19
2022-08-20T10:56:07.062Z,51.04
2022-08-20T10:57:07.023Z,51.12
2022-08-20T10:58:07.021Z,52.26
2022-08-20T10:59:07.011Z,51.94
2022-08-20T11:00:07.086Z,52.33
2022-08-20T11:01:07.009Z,52.43
2022-08-20T11:02:07.080Z,52.14
2022-08-20T11:03:06.993Z,52.45
2022-08-20T11:04:07.080Z,52.28
2022-08-20T11:05:06.983Z,52.31
2022-08-20T11:06:06.978Z,51.46
2022-08-20T11:07:06.980Z,50.73
2022-08-20T11:08:06.965Z,49.78
2022-08-20T11:09:06.963Z,48.73
2022-08-20T11:10:11.802Z,48.46
2022-08-20T11:11:06.960Z,48.55
2022-08-20T11:12:06.958Z,48.54
2022-08-20T11:13:06.949Z,48.54
2022-08-20T11:14:06.956Z,48.73
2022-08-20T11:15:06.935Z,48.63
2022-08-20T11:16:06.927Z,49.10
2022-08-20T11:17:06.926Z,48.71
2022-08-20T11:18:06.928Z,49.29
2022-08-20T11:19:06.913Z,49.37
2022-08-20T11:20:06.909Z,49.88
2022-08-20T11:21:06.905Z,49.61
2022-08-20T11:22:06.898Z,49.02
2022-08-20T11:23:06.895Z,48.77
2022-08-20T11:24:06.891Z,48.02
2022-08-20T11:25:06.889Z,47.06
2022-08-20T11:26:06.879Z,46.97
2022-08-20T11:27:06.883Z,46.28
2022-08-20T11:28:06.873Z,46.37
2022-08-20T11:29:06.871Z,46.59
2022-08-20T11:30:06.866Z,46.30
2022-08-20T11:31:06.876Z,46.20
2022-08-20T11:32:06.856Z,46.47
2022-08-20T11:33:06.853Z,46.67
2022-08-20T11:34:12.075Z,46.01
2022-08-20T11:35:38.266Z,45.44
2022-08-20T11:36:06.841Z,45.27
2022-08-20T11:37:06.841Z,44.38
2022-08-20T11:38:06.836Z,43.51
2022-08-20T11:39:06.834Z,43.80
2022-08-20T11:40:06.888Z,43.48
2022-08-20T11:41:06.829Z,43.58
2022-08-20T11:42:06.821Z,43.58
2022-08-20T11:43:15.629Z,43.56
2022-08-20T11:44:21.172Z,44.15
2022-08-20T11:45:06.814Z,43.76
2022-08-20T11:46:06.812Z,43.68
2022-08-20T11:47:06.807Z,43.48
2022-08-20T11:48:06.801Z,43.77
2022-08-20T11:49:06.800Z,43.12
2022-08-20T11:50:06.795Z,42.72
2022-08-20T11:51:06.793Z,42.33
2022-08-20T11:52:06.790Z,42.50
2022-08-20T11:53:08.041Z,42.62
2022-08-20T11:54:06.784Z,42.15
2022-08-20T11:55:06.781Z,40.68
2022-08-20T11:56:06.777Z,40.00
2022-08-20T11:57:06.786Z,40.39
2022-08-20T11:58:06.772Z,40.47
2022-08-20T11:59:06.771Z,40.47
2022-08-20T12:00:06.772Z,40.58
2022-08-20T12:01:06.768Z,40.51
2022-08-20T12:02:11.698Z,40.03
2022-08-20T12:03:09.280Z,39.37
2022-08-20T12:04:06.759Z,39.21
2022-08-20T12:05:06.761Z,38.05
2022-08-20T12:06:06.759Z,38.26
2022-08-20T12:07:06.757Z,37.20
2022-08-20T12:08:06.751Z,36.82
2022-08-20T12:09:06.757Z,36.72
2022-08-20T12:10:06.752Z,36.63
2022-08-20T12:11:06.752Z,36.15
2022-08-20T12:12:06.743Z,36.25
2022-08-20T12:13:06.744Z,35.88
2022-08-20T12:14:06.741Z,35.38
2022-08-20T12:15:06.739Z,35.10
2022-08-20T12:16:06.742Z,35.08
2022-08-20T12:17:06.738Z,34.87
2022-08-20T12:18:06.749Z,35.74
2022-08-20T12:19:16.453Z,35.82
2022-08-20T12:21:13.744Z,35.15
2022-08-20T12:22:24.880Z,35.17
2022-08-20T12:23:13.701Z,34.69
2022-08-20T12:24:13.699Z,33.91
2022-08-20T12:25:13.710Z,33.51
2022-08-20T12:26:13.713Z,33.22
2022-08-20T12:27:13.698Z,32.82
2022-08-20T12:28:13.701Z,33.01
2022-08-20T12:29:13.702Z,32.64
2022-08-20T12:30:13.701Z,32.14
2022-08-20T12:31:13.706Z,31.65
2022-08-20T12:32:13.697Z,30.96
2022-08-20T12:33:13.691Z,31.14
2022-08-20T12:34:13.703Z,31.32
2022-08-20T12:35:13.694Z,31.42
2022-08-20T12:36:13.692Z,31.34
2022-08-20T12:37:15.943Z,31.14
2022-08-20T12:38:13.701Z,30.85
2022-08-20T12:39:13.691Z,30.75
2022-08-20T12:40:13.822Z,31.14
2022-08-20T12:41:13.689Z,30.93
2022-08-20T12:42:13.688Z,31.10
2022-08-20T12:43:13.684Z,31.46
2022-08-20T12:44:13.687Z,31.82
2022-08-20T12:45:13.688Z,32.48
2022-08-20T12:46:13.681Z,33.14
2022-08-20T12:47:13.680Z,33.80
2022-08-20T12:48:13.679Z,34.39
2022-08-20T12:49:13.680Z,34.61
2022-08-20T12:50:13.674Z,34.21
2022-08-20T12:51:13.669Z,33.84
2022-08-20T12:52:13.672Z,33.54
2022-08-20T12:53:13.666Z,33.65